Reynosa, Mexico

8:25 PM CST on November 22, 2014 (GMT -0600)
RAWS SANTA ANA NWR TX US | Change Station
CLOSE
Current Station
Personal Weather Station
Location: Hidalgo, TX
Elevation: 89 ft
Nearby Weather Stations

Elev 89 ft 26.08 °N, 98.16 °W | Updated 40 minutes ago

Overcast
Overcast
71 °F
Feels Like 71 °F
N
4
Wind Variable Wind from West
Gusts 11.0 mph

Today
High -- | Low -- °F
--% Chance of Precip.
Yesterday
High -- | Low -- °F
Precip. -- in
6:56 AM 5:41 PM
New Moon, 0% visible
Pressure 29.79 in
Visibility 9.0 miles
Clouds Overcast 1900 ft
Dew Point 68 °F
Humidity 91%
Rainfall 0.00 in
Snow Depth Not available.
UV 0 out of 12
Pollen Not available.
Air Quality Not available.
Flu Activity Not available.
METAR KMFE 230153Z 20004KT 9SM OVC019 23/21 A2979

More Conditions Fewer Conditions

Pressure 29.79 in
Visibility 9.0 miles
Clouds Overcast 1900 ft
Dew Point 68 °F
Humidity 91%
Rainfall 0.00 in
Snow Depth Not available.
UV 0 out of 12
Pollen Not available.
Air Quality Not available.
Flu Activity Not available.
METAR KMFE 230153Z 20004KT 9SM OVC019 23/21 A2979

More Conditions Fewer Conditions

10-Day Weather Forecast

Almanac

Astronomy

Nov. 22, 2014 Rise Set
Actual Time
Civil Twilight
Nautical Twilight
Astronomical Twilight
Moon
Length of Visible Light
Length of Day
Tomorrow will be .
, % of the Moon is Illuminated

Today's Extremes

Country Highs Country Lows

Community

WunderPhotos

Upload Photos

1,772,973 photos uploaded!

WunderBlogs® & News

Nearby

Air Quality

  Air Quality AQ Index Pollutant
Not available.

Snow Depth

Station Depth Elevation

Earthquake Activity

City Distance Mag. Time & Date
Minimum magnitude displayed is 2.5.

Coastal Water Temperatures

Place Temperature

Nearby Weather Stations